createdAt,value
2023-05-07T00:00:09.111Z,12.98
2023-05-07T00:02:38.442Z,16.30
2023-05-07T00:05:07.587Z,12.98
2023-05-07T00:07:35.719Z,12.85
2023-05-07T00:10:04.776Z,14.25
2023-05-07T00:12:34.584Z,11.98
2023-05-07T00:15:04.629Z,16.35
2023-05-07T00:17:33.702Z,14.52
2023-05-07T00:20:01.772Z,14.95
2023-05-07T00:22:31.084Z,14.63
2023-05-07T00:24:59.140Z,15.02
2023-05-07T00:27:27.132Z,16.02
2023-05-07T00:29:55.209Z,18.15
2023-05-07T00:32:23.107Z,14.98
2023-05-07T00:34:52.070Z,14.32
2023-05-07T00:37:20.074Z,14.93
2023-05-07T00:39:47.924Z,17.80
2023-05-07T00:42:17.139Z,16.98
2023-05-07T00:44:45.032Z,14.93
2023-05-07T00:47:13.653Z,16.85
2023-05-07T00:49:46.405Z,16.10
2023-05-07T00:52:18.461Z,15.70
2023-05-07T00:54:46.589Z,14.88
2023-05-07T00:57:15.516Z,18.23
2023-05-07T00:59:43.421Z,16.85
2023-05-07T01:02:12.065Z,17.80
2023-05-07T01:04:41.498Z,20.05
2023-05-07T01:07:10.160Z,16.45
2023-05-07T01:09:38.741Z,20.55
2023-05-07T01:14:56.276Z,16.38
2023-05-07T01:17:27.301Z,19.98
2023-05-07T01:19:55.462Z,19.45
2023-05-07T01:22:33.977Z,22.30
2023-05-07T01:25:02.775Z,19.73
2023-05-07T01:27:31.633Z,18.25
2023-05-07T01:29:59.850Z,21.45
2023-05-07T01:32:57.506Z,18.77
2023-05-07T01:35:37.097Z,20.23
2023-05-07T01:38:07.146Z,21.15
2023-05-07T01:40:35.990Z,20.52
2023-05-07T01:43:04.768Z,20.38
2023-05-07T01:45:36.138Z,22.00
2023-05-07T01:48:05.407Z,22.25
2023-05-07T01:50:34.643Z,23.65
2023-05-07T01:53:03.605Z,24.20
2023-05-07T01:55:31.985Z,22.95
2023-05-07T01:58:03.944Z,24.10
2023-05-07T02:00:33.142Z,22.70
2023-05-07T02:03:01.578Z,24.92
2023-05-07T02:05:41.263Z,25.25
2023-05-07T02:08:16.785Z,24.48
2023-05-07T02:10:44.835Z,23.48
2023-05-07T02:13:12.966Z,25.30
2023-05-07T02:15:41.024Z,22.75
2023-05-07T02:18:11.965Z,24.83
2023-05-07T02:20:40.017Z,24.90
2023-05-07T02:23:08.107Z,27.30
2023-05-07T02:25:36.189Z,26.67
2023-05-07T02:28:04.529Z,25.00
2023-05-07T02:30:52.879Z,26.98
2023-05-07T02:33:21.708Z,29.17
2023-05-07T02:35:50.278Z,29.40
2023-05-07T02:38:18.522Z,29.73
2023-05-07T02:40:46.645Z,27.85
2023-05-07T02:43:14.766Z,28.42
2023-05-07T02:45:46.182Z,31.55
2023-05-07T02:48:14.521Z,32.03
2023-05-07T02:50:42.594Z,29.75
2023-05-07T02:53:17.129Z,32.63
2023-05-07T02:55:45.672Z,31.77
2023-05-07T02:58:13.875Z,30.67
2023-05-07T03:00:43.556Z,30.92
2023-05-07T03:03:24.257Z,32.05
2023-05-07T03:05:52.186Z,32.17
2023-05-07T03:08:20.385Z,34.78
2023-05-07T03:10:48.672Z,31.88
2023-05-07T03:13:16.745Z,34.78
2023-05-07T03:15:44.901Z,34.63
2023-05-07T03:18:13.192Z,36.75
2023-05-07T03:20:41.401Z,36.95
2023-05-07T03:23:09.710Z,36.60
2023-05-07T03:25:38.173Z,35.78
2023-05-07T03:28:06.676Z,37.28
2023-05-07T03:30:46.822Z,34.15
2023-05-07T03:33:14.794Z,36.75
2023-05-07T03:35:43.236Z,36.15
2023-05-07T03:38:12.078Z,34.67
2023-05-07T03:40:40.764Z,37.35
2023-05-07T03:43:09.165Z,36.40
2023-05-07T03:45:40.721Z,37.20
2023-05-07T03:48:14.692Z,33.58
2023-05-07T03:50:43.211Z,40.15
2023-05-07T03:53:12.731Z,35.88
2023-05-07T03:55:41.487Z,37.83
2023-05-07T03:58:09.654Z,42.35
2023-05-07T04:00:41.588Z,34.63
2023-05-07T04:03:25.708Z,34.38
2023-05-07T04:05:54.558Z,32.97
2023-05-07T04:08:23.048Z,36.28
2023-05-07T04:11:01.547Z,38.05
2023-05-07T04:13:32.799Z,33.80
2023-05-07T04:16:04.934Z,33.08
2023-05-07T04:18:34.193Z,34.83
2023-05-07T04:21:02.569Z,33.03
2023-05-07T04:23:30.889Z,35.17
2023-05-07T04:26:01.959Z,34.20
2023-05-07T04:28:40.683Z,36.90
2023-05-07T04:31:09.776Z,37.92
2023-05-07T04:33:39.166Z,35.30
2023-05-07T04:36:09.914Z,32.95
2023-05-07T04:38:44.957Z,33.03
2023-05-07T04:41:15.090Z,33.78
2023-05-07T04:43:44.002Z,33.40
2023-05-07T04:46:14.483Z,33.25
2023-05-07T04:48:43.467Z,35.70
2023-05-07T04:51:11.922Z,32.67
2023-05-07T04:53:40.125Z,31.55
2023-05-07T04:56:08.337Z,33.95
2023-05-07T04:58:41.800Z,34.03
2023-05-07T05:01:10.740Z,30.42
2023-05-07T05:03:40.642Z,33.22
2023-05-07T05:06:09.565Z,33.58
2023-05-07T05:08:38.199Z,29.65
2023-05-07T05:11:06.673Z,31.45
2023-05-07T05:13:36.891Z,30.23
2023-05-07T05:16:11.767Z,28.33
2023-05-07T05:18:40.598Z,26.95
2023-05-07T05:21:10.944Z,28.10
2023-05-07T05:23:40.321Z,27.00
2023-05-07T05:26:08.485Z,25.45
2023-05-07T05:28:37.168Z,26.42
2023-05-07T05:31:06.994Z,31.10
2023-05-07T05:33:37.536Z,26.45
2023-05-07T05:36:07.355Z,25.33
2023-05-07T05:38:36.018Z,26.58
2023-05-07T05:41:04.415Z,25.05
2023-05-07T05:43:32.703Z,28.25
2023-05-07T05:46:05.664Z,27.45
2023-05-07T05:48:33.883Z,27.38
2023-05-07T05:51:03.549Z,27.30
2023-05-07T05:53:31.407Z,25.88
2023-05-07T05:55:59.944Z,28.30
2023-05-07T05:58:28.190Z,27.95
2023-05-07T06:01:03.580Z,26.33
2023-05-07T06:03:33.509Z,28.08
2023-05-07T06:06:05.167Z,24.98
2023-05-07T06:08:33.350Z,23.30
2023-05-07T06:11:03.925Z,27.40
2023-05-07T06:13:35.315Z,27.60
2023-05-07T06:16:03.435Z,23.85
2023-05-07T06:18:31.542Z,24.85
2023-05-07T06:21:01.848Z,29.40
2023-05-07T06:23:32.953Z,27.40
2023-05-07T06:26:02.147Z,24.10
2023-05-07T06:28:38.337Z,27.40
2023-05-07T06:31:14.403Z,26.92
2023-05-07T06:33:45.293Z,28.80
2023-05-07T06:36:14.337Z,25.10
2023-05-07T06:38:44.941Z,25.40
2023-05-07T06:41:13.145Z,26.67
2023-05-07T06:43:41.289Z,27.20
2023-05-07T06:46:48.146Z,26.35
2023-05-07T06:49:16.655Z,28.17
2023-05-07T06:51:44.779Z,28.17
2023-05-07T06:54:12.999Z,25.00
2023-05-07T06:56:42.823Z,24.38
2023-05-07T06:59:11.086Z,24.92
2023-05-07T07:01:41.673Z,25.85
2023-05-07T07:04:11.557Z,26.90
2023-05-07T07:06:42.072Z,26.95
2023-05-07T07:09:13.117Z,24.35
2023-05-07T07:11:42.318Z,24.35
2023-05-07T07:14:10.652Z,27.85
2023-05-07T07:16:47.956Z,25.02
2023-05-07T07:19:17.663Z,30.42
2023-05-07T07:21:48.639Z,25.67
2023-05-07T07:24:20.250Z,26.15
2023-05-07T07:26:49.646Z,27.27
2023-05-07T07:29:19.682Z,22.88
2023-05-07T07:31:51.210Z,25.27
2023-05-07T07:34:21.618Z,23.90
2023-05-07T07:36:50.446Z,27.33
2023-05-07T07:39:21.107Z,25.60
2023-05-07T07:41:59.528Z,26.92
2023-05-07T07:44:31.033Z,23.83
2023-05-07T07:47:04.791Z,25.27
2023-05-07T07:49:35.583Z,27.77
2023-05-07T07:52:16.386Z,22.58
2023-05-07T07:54:46.816Z,24.17
2023-05-07T07:57:17.739Z,25.35
2023-05-07T07:59:46.967Z,24.40
2023-05-07T08:04:59.920Z,21.30
2023-05-07T08:07:28.536Z,22.65
2023-05-07T08:10:00.220Z,20.00
2023-05-07T08:15:11.534Z,21.63
2023-05-07T08:17:40.099Z,21.08
2023-05-07T08:20:14.559Z,20.65
2023-05-07T08:22:43.635Z,22.67
2023-05-07T08:25:12.119Z,20.33
2023-05-07T08:28:17.322Z,19.10
2023-05-07T08:33:40.644Z,21.48
2023-05-07T08:36:09.391Z,20.50
2023-05-07T08:38:38.130Z,21.55
2023-05-07T08:41:08.564Z,18.25
2023-05-07T08:43:39.022Z,19.05
2023-05-07T08:46:10.511Z,23.40
2023-05-07T08:48:42.182Z,22.98
2023-05-07T08:51:18.915Z,21.33
2023-05-07T08:53:53.258Z,25.35
2023-05-07T08:56:29.003Z,19.90
2023-05-07T08:58:59.793Z,20.67
2023-05-07T09:01:30.056Z,23.45
2023-05-07T09:03:59.952Z,21.05
2023-05-07T09:06:38.978Z,22.00
2023-05-07T09:09:07.582Z,20.83
2023-05-07T09:11:38.424Z,18.30
2023-05-07T09:16:49.410Z,20.48
2023-05-07T09:19:23.303Z,18.90
2023-05-07T09:21:58.947Z,21.33
2023-05-07T09:24:37.150Z,22.33
2023-05-07T09:27:16.499Z,22.92
2023-05-07T09:29:47.673Z,20.48
2023-05-07T09:32:18.722Z,20.75
2023-05-07T09:34:50.843Z,21.17
2023-05-07T09:40:34.721Z,20.40
2023-05-07T09:43:15.698Z,20.20
2023-05-07T09:45:54.652Z,19.67
2023-05-07T09:48:31.056Z,21.77
2023-05-07T09:51:03.365Z,22.20
2023-05-07T09:53:35.870Z,21.40
2023-05-07T09:56:06.690Z,20.17
2023-05-07T09:58:40.879Z,20.25
2023-05-07T10:01:11.689Z,18.80
2023-05-07T10:03:46.117Z,22.77
2023-05-07T10:06:16.368Z,20.08
2023-05-07T10:08:46.081Z,19.92
2023-05-07T10:11:16.823Z,19.95
2023-05-07T10:13:47.492Z,24.05
2023-05-07T10:16:17.585Z,20.95
2023-05-07T10:18:51.242Z,20.65
2023-05-07T10:21:24.904Z,21.20
2023-05-07T10:24:07.821Z,21.53
2023-05-07T10:26:38.502Z,21.65
2023-05-07T10:29:22.438Z,23.08
2023-05-07T10:32:01.279Z,20.97
2023-05-07T10:34:35.185Z,23.58
2023-05-07T10:37:05.619Z,21.48
2023-05-07T10:39:36.244Z,22.15
2023-05-07T10:42:12.641Z,20.02
2023-05-07T10:44:44.521Z,17.23
2023-05-07T10:47:20.097Z,20.02
2023-05-07T10:50:12.284Z,21.38
2023-05-07T10:52:42.679Z,21.02
2023-05-07T10:55:22.762Z,19.55
2023-05-07T10:58:33.117Z,20.58
2023-05-07T11:01:56.042Z,21.15
2023-05-07T11:04:35.825Z,19.40
2023-05-07T11:07:28.993Z,23.08
2023-05-07T11:10:05.119Z,21.15
2023-05-07T11:12:42.284Z,23.83
2023-05-07T11:15:34.335Z,22.88
2023-05-07T11:18:07.121Z,22.88
2023-05-07T11:20:57.442Z,24.45
2023-05-07T11:23:51.608Z,21.90
2023-05-07T11:26:27.303Z,19.92
2023-05-07T11:28:56.689Z,17.00
2023-05-07T11:31:37.773Z,17.98
2023-05-07T11:34:07.684Z,19.02
2023-05-07T11:36:36.833Z,16.70
2023-05-07T11:39:23.762Z,23.85
2023-05-07T11:41:53.624Z,17.58
2023-05-07T11:44:24.563Z,17.05
2023-05-07T11:46:53.003Z,15.95
2023-05-07T11:49:21.046Z,14.73
2023-05-07T11:51:49.225Z,15.13
2023-05-07T11:54:17.908Z,15.00
2023-05-07T11:56:50.480Z,13.70
2023-05-07T11:59:21.627Z,15.20
2023-05-07T12:01:50.006Z,14.05
2023-05-07T12:04:22.100Z,16.38
2023-05-07T12:06:52.184Z,17.63
2023-05-07T12:09:20.492Z,16.52
2023-05-07T12:11:49.044Z,17.45
2023-05-07T12:14:17.631Z,15.73
2023-05-07T12:16:47.066Z,14.07
2023-05-07T12:19:16.681Z,14.68
2023-05-07T12:21:45.637Z,16.52
2023-05-07T12:24:21.707Z,16.00
2023-05-07T12:26:53.811Z,16.85
2023-05-07T12:29:27.004Z,16.88
2023-05-07T12:31:55.304Z,17.50
2023-05-07T12:34:25.131Z,15.48
2023-05-07T12:36:54.503Z,12.65
2023-05-07T12:39:22.842Z,15.90
2023-05-07T12:41:55.220Z,16.58
2023-05-07T12:44:31.084Z,15.65
2023-05-07T12:46:59.891Z,13.32
2023-05-07T12:49:28.060Z,15.85
2023-05-07T12:51:57.567Z,16.38
2023-05-07T12:54:32.981Z,16.67
2023-05-07T12:57:09.174Z,15.25
2023-05-07T12:59:42.099Z,17.27
2023-05-07T13:02:10.957Z,17.05
2023-05-07T13:04:40.949Z,18.23
2023-05-07T13:07:09.451Z,16.25
2023-05-07T13:09:38.410Z,19.40
2023-05-07T13:12:07.538Z,18.55
2023-05-07T13:14:35.820Z,17.45
2023-05-07T13:17:04.277Z,18.90
2023-05-07T13:19:32.675Z,15.25
2023-05-07T13:22:00.819Z,15.50
2023-05-07T13:24:28.915Z,17.67
2023-05-07T13:26:57.057Z,19.48
2023-05-07T13:29:34.448Z,17.42
2023-05-07T13:32:02.796Z,20.33
2023-05-07T13:34:31.085Z,17.45
2023-05-07T13:37:02.325Z,20.33
2023-05-07T13:39:30.649Z,19.90
2023-05-07T13:41:59.062Z,18.33
2023-05-07T13:44:33.001Z,17.88
2023-05-07T13:47:11.906Z,16.95
2023-05-07T13:49:45.516Z,18.52
2023-05-07T13:52:17.819Z,18.80
2023-05-07T13:54:58.403Z,18.15
2023-05-07T13:57:29.803Z,17.80
2023-05-07T14:00:03.411Z,17.65
2023-05-07T14:02:56.997Z,18.48
2023-05-07T14:05:34.657Z,18.40
2023-05-07T14:08:09.440Z,17.75
2023-05-07T14:10:50.272Z,19.40
2023-05-07T14:13:31.149Z,19.67
2023-05-07T14:16:04.963Z,19.42
2023-05-07T14:19:07.791Z,18.38
2023-05-07T14:22:06.943Z,19.20
2023-05-07T14:24:41.089Z,20.17
2023-05-07T14:27:12.420Z,18.75
2023-05-07T14:29:45.024Z,19.45
2023-05-07T14:32:26.007Z,20.15
2023-05-07T14:34:55.275Z,19.85
2023-05-07T14:37:25.087Z,22.05
2023-05-07T14:39:58.793Z,19.20
2023-05-07T14:42:27.098Z,21.67
2023-05-07T14:44:55.990Z,19.58
2023-05-07T14:47:27.990Z,21.65
2023-05-07T14:49:57.593Z,20.20
2023-05-07T14:52:47.914Z,19.52
2023-05-07T14:55:16.536Z,19.08
2023-05-07T14:57:44.969Z,22.20
2023-05-07T15:00:17.009Z,22.48
2023-05-07T15:02:50.644Z,21.63
2023-05-07T15:05:20.375Z,22.93
2023-05-07T15:07:48.651Z,24.73
2023-05-07T15:10:20.265Z,21.88
2023-05-07T15:12:49.190Z,23.08
2023-05-07T15:15:37.319Z,23.45
2023-05-07T15:18:06.051Z,25.67
2023-05-07T15:20:34.573Z,23.13
2023-05-07T15:23:02.761Z,24.75
2023-05-07T15:25:32.389Z,24.58
2023-05-07T15:28:00.931Z,22.98
2023-05-07T15:30:29.314Z,26.67
2023-05-07T15:32:57.446Z,25.13
2023-05-07T15:35:26.607Z,28.00
2023-05-07T15:37:55.038Z,31.25
2023-05-07T15:40:23.222Z,33.40
2023-05-07T15:42:55.325Z,30.60
2023-05-07T15:45:24.356Z,29.15
2023-05-07T15:47:52.714Z,30.70
2023-05-07T15:50:23.535Z,31.13
2023-05-07T15:52:56.976Z,32.80
2023-05-07T15:55:33.208Z,33.60
2023-05-07T15:58:10.386Z,34.03
2023-05-07T16:00:44.743Z,32.72
2023-05-07T16:05:51.521Z,20.70
2023-05-07T16:08:23.886Z,19.23
2023-05-07T16:11:07.529Z,12.65
2023-05-07T16:13:38.760Z,10.57
2023-05-07T16:16:07.016Z,9.65
2023-05-07T16:18:36.914Z,9.32
2023-05-07T16:21:08.195Z,9.38
2023-05-07T16:23:37.275Z,9.50
2023-05-07T16:26:05.296Z,9.68
2023-05-07T16:28:36.172Z,8.88
2023-05-07T16:31:04.296Z,10.02
2023-05-07T16:33:32.738Z,13.35
2023-05-07T16:36:01.073Z,10.77
2023-05-07T16:38:32.946Z,13.25
2023-05-07T16:41:01.632Z,11.77
2023-05-07T16:43:29.655Z,12.93
2023-05-07T16:45:57.956Z,11.00
2023-05-07T16:48:26.525Z,11.23
2023-05-07T16:50:57.588Z,12.57
2023-05-07T16:53:25.869Z,12.52
2023-05-07T16:55:56.466Z,14.93
2023-05-07T16:58:24.628Z,15.02
2023-05-07T17:00:52.654Z,14.43
2023-05-07T17:03:20.910Z,16.27
2023-05-07T17:05:49.102Z,13.23
2023-05-07T17:08:17.493Z,10.95
2023-05-07T17:10:46.540Z,13.38
2023-05-07T17:13:14.906Z,11.57
2023-05-07T17:15:45.454Z,13.82
2023-05-07T17:18:14.276Z,12.93
2023-05-07T17:20:42.555Z,15.18
2023-05-07T17:23:13.788Z,12.85
2023-05-07T17:25:46.214Z,13.90
2023-05-07T17:28:15.000Z,15.52
2023-05-07T17:30:43.761Z,14.38
2023-05-07T17:33:21.155Z,15.85
2023-05-07T17:35:50.459Z,17.55
2023-05-07T17:38:19.047Z,18.98
2023-05-07T17:40:50.419Z,14.48
2023-05-07T17:43:19.903Z,14.80
2023-05-07T17:45:49.153Z,15.80
2023-05-07T17:48:18.732Z,17.40
2023-05-07T17:50:48.835Z,14.48
2023-05-07T17:53:17.826Z,15.90
2023-05-07T17:55:52.570Z,20.35
2023-05-07T17:58:22.654Z,16.92
2023-05-07T18:00:51.851Z,18.20
2023-05-07T18:03:23.166Z,22.98
2023-05-07T18:05:51.704Z,18.98
2023-05-07T18:08:19.926Z,18.80
2023-05-07T18:10:48.439Z,19.00
2023-05-07T18:13:18.603Z,22.13
2023-05-07T18:15:51.168Z,19.95
2023-05-07T18:18:20.130Z,22.73
2023-05-07T18:20:51.579Z,21.30
2023-05-07T18:23:26.201Z,19.25
2023-05-07T18:25:57.376Z,20.98
2023-05-07T18:28:31.873Z,18.38
2023-05-07T18:31:03.009Z,22.17
2023-05-07T18:33:32.201Z,21.45
2023-05-07T18:36:01.955Z,18.00
2023-05-07T18:38:33.061Z,18.70
2023-05-07T18:41:07.520Z,17.45
2023-05-07T18:43:36.543Z,16.65
2023-05-07T18:46:06.767Z,19.77
2023-05-07T18:48:37.325Z,18.40
2023-05-07T18:51:06.310Z,17.85
2023-05-07T18:53:36.154Z,18.70
2023-05-07T18:56:07.774Z,18.42
2023-05-07T18:58:37.727Z,17.92
2023-05-07T19:01:08.883Z,18.75
2023-05-07T19:03:39.995Z,19.40
2023-05-07T19:06:11.364Z,20.48
2023-05-07T19:08:40.025Z,20.10
2023-05-07T19:11:14.481Z,22.00
2023-05-07T19:13:46.400Z,16.92
2023-05-07T19:16:31.083Z,17.38
2023-05-07T19:18:59.993Z,16.65
2023-05-07T19:21:36.025Z,19.27
2023-05-07T19:24:06.029Z,20.55
2023-05-07T19:26:35.014Z,20.10
2023-05-07T19:29:16.233Z,21.30
2023-05-07T19:31:51.313Z,18.42
2023-05-07T19:34:19.906Z,17.80
2023-05-07T19:36:57.017Z,18.15
2023-05-07T19:42:11.710Z,18.73
2023-05-07T19:51:05.421Z,18.98
2023-05-07T20:02:05.454Z,21.58
2023-05-07T20:04:38.391Z,18.13
2023-05-07T20:15:31.934Z,20.42
2023-05-07T20:23:42.694Z,21.10
2023-05-07T20:29:12.859Z,20.63
2023-05-07T21:16:07.245Z,23.40
2023-05-07T21:21:26.412Z,23.63
2023-05-07T21:23:57.319Z,23.65
2023-05-07T21:26:26.028Z,28.98
2023-05-07T21:28:54.570Z,26.58
2023-05-07T21:34:08.767Z,26.15
2023-05-07T21:36:38.274Z,28.95
2023-05-07T21:39:09.098Z,26.27
2023-05-07T21:44:19.853Z,28.33
2023-05-07T21:46:48.238Z,26.77
2023-05-07T21:49:28.702Z,25.20
2023-05-07T21:51:57.545Z,28.63
2023-05-07T21:54:25.706Z,29.88
2023-05-07T21:56:54.255Z,32.75
2023-05-07T21:59:22.258Z,28.33
2023-05-07T22:01:50.729Z,31.33
2023-05-07T22:04:19.418Z,28.55
2023-05-07T22:06:47.672Z,32.40
2023-05-07T22:09:15.661Z,34.10
2023-05-07T22:11:43.651Z,36.65
2023-05-07T22:14:11.924Z,27.83
2023-05-07T22:16:40.130Z,31.45
2023-05-07T22:19:08.275Z,29.73
2023-05-07T22:21:36.525Z,29.58
2023-05-07T22:24:07.160Z,31.50
2023-05-07T22:26:35.633Z,28.35
2023-05-07T22:29:03.744Z,26.00
2023-05-07T22:31:31.822Z,28.45
2023-05-07T22:33:59.946Z,27.15
2023-05-07T22:36:27.919Z,28.08
2023-05-07T22:38:56.059Z,27.38
2023-05-07T22:41:24.646Z,25.35
2023-05-07T22:43:52.454Z,24.92
2023-05-07T22:46:20.600Z,24.42
2023-05-07T22:48:49.010Z,25.90
2023-05-07T22:51:17.233Z,29.98
2023-05-07T22:53:46.448Z,27.00
2023-05-07T22:56:14.652Z,27.10
2023-05-07T22:58:42.896Z,26.58
2023-05-07T23:01:27.431Z,25.40
2023-05-07T23:03:55.543Z,26.83
2023-05-07T23:06:23.805Z,28.88
2023-05-07T23:08:51.873Z,26.40
2023-05-07T23:11:21.031Z,26.17
2023-05-07T23:13:49.122Z,27.73
2023-05-07T23:16:17.122Z,26.13
2023-05-07T23:18:45.113Z,27.88
2023-05-07T23:21:13.700Z,25.00
2023-05-07T23:23:41.849Z,29.35
2023-05-07T23:26:09.935Z,26.25
2023-05-07T23:28:40.081Z,25.80
2023-05-07T23:31:09.714Z,26.27
2023-05-07T23:33:38.347Z,24.48
2023-05-07T23:36:08.074Z,26.70
2023-05-07T23:38:36.178Z,28.13
2023-05-07T23:41:06.983Z,25.48
2023-05-07T23:43:35.569Z,26.95
2023-05-07T23:46:03.634Z,25.33
2023-05-07T23:48:31.739Z,23.48
2023-05-07T23:50:59.670Z,24.98
2023-05-07T23:53:27.717Z,25.83
2023-05-07T23:55:58.877Z,24.15
2023-05-07T23:58:27.322Z,25.42
